createdAt,value
2019-02-01T00:02:20.661Z,7.10
2019-02-01T00:04:50.630Z,6.00
2019-02-01T00:07:20.726Z,6.00
2019-02-01T00:09:50.784Z,9.63
2019-02-01T00:12:21.035Z,8.70
2019-02-01T00:14:51.181Z,5.00
2019-02-01T00:17:21.304Z,9.00
2019-02-01T00:19:51.722Z,6.75
2019-02-01T00:22:21.742Z,5.77
2019-02-01T00:24:52.083Z,15.13
2019-02-01T00:27:22.045Z,6.20
2019-02-01T00:29:52.123Z,7.50
2019-02-01T00:32:22.218Z,6.13
2019-02-01T00:34:52.112Z,4.90
2019-02-01T00:37:22.258Z,6.97
2019-02-01T00:39:52.355Z,6.83
2019-02-01T00:42:22.362Z,7.47
2019-02-01T00:44:52.364Z,5.30
2019-02-01T00:47:22.349Z,5.33
2019-02-01T00:49:52.330Z,4.70
2019-02-01T00:52:22.416Z,4.13
2019-02-01T00:54:52.508Z,5.70
2019-02-01T00:57:22.659Z,6.30
2019-02-01T00:59:52.743Z,6.43
2019-02-01T01:02:22.911Z,7.30
2019-02-01T01:04:53.038Z,8.70
2019-02-01T01:07:23.123Z,7.35
2019-02-01T01:09:53.287Z,5.53
2019-02-01T01:12:23.526Z,6.35
2019-02-01T01:14:53.757Z,9.13
2019-02-01T01:17:23.919Z,7.23
2019-02-01T01:19:53.865Z,5.08
2019-02-01T01:22:23.879Z,6.63
2019-02-01T01:24:54.044Z,4.30
2019-02-01T01:27:24.043Z,6.13
2019-02-01T01:29:54.327Z,5.28
2019-02-01T01:32:24.614Z,4.47
2019-02-01T01:34:54.644Z,7.40
2019-02-01T01:37:24.808Z,5.57
2019-02-01T01:39:54.999Z,5.27
2019-02-01T01:42:25.240Z,6.73
2019-02-01T01:45:17.036Z,7.67
2019-02-01T01:47:47.522Z,6.40
2019-02-01T01:50:19.224Z,4.40
2019-02-01T01:52:50.664Z,6.30
2019-02-01T01:55:21.179Z,5.00
2019-02-01T01:57:51.419Z,3.80
2019-02-01T02:00:31.044Z,6.67
2019-02-01T02:03:01.316Z,7.63
2019-02-01T02:05:31.357Z,5.17
2019-02-01T02:08:01.709Z,8.00
2019-02-01T02:10:31.747Z,7.15
2019-02-01T02:13:01.853Z,5.95
2019-02-01T02:15:32.070Z,4.70
2019-02-01T02:18:02.283Z,4.80
2019-02-01T02:20:32.435Z,4.90
2019-02-01T02:23:02.559Z,4.58
2019-02-01T02:25:32.631Z,10.98
2019-02-01T02:28:02.800Z,5.03
2019-02-01T02:30:32.865Z,5.90
2019-02-01T02:33:02.958Z,4.70
2019-02-01T02:35:32.862Z,4.10
2019-02-01T02:38:03.032Z,3.52
2019-02-01T02:40:33.151Z,5.70
2019-02-01T02:43:03.241Z,3.67
2019-02-01T02:45:33.306Z,4.60
2019-02-01T02:48:03.501Z,9.03
2019-02-01T02:50:33.582Z,6.07
2019-02-01T02:53:03.693Z,5.53
2019-02-01T02:55:34.007Z,4.07
2019-02-01T02:58:04.208Z,4.43
2019-02-01T03:00:34.304Z,3.60
2019-02-01T03:03:04.854Z,5.03
2019-02-01T03:05:34.944Z,4.97
2019-02-01T03:08:05.527Z,4.92
2019-02-01T03:10:35.563Z,6.40
2019-02-01T03:13:05.929Z,4.70
2019-02-01T03:15:36.083Z,3.43
2019-02-01T03:18:06.549Z,4.30
2019-02-01T03:20:36.679Z,4.57
2019-02-01T03:23:06.636Z,3.70
2019-02-01T03:25:36.579Z,3.77
2019-02-01T03:28:06.607Z,7.17
2019-02-01T03:30:36.602Z,4.10
2019-02-01T03:33:06.680Z,4.73
2019-02-01T03:35:36.637Z,5.80
2019-02-01T03:38:06.739Z,4.73
2019-02-01T03:40:36.637Z,8.63
2019-02-01T03:43:06.605Z,5.90
2019-02-01T03:45:36.750Z,6.57
2019-02-01T03:48:06.903Z,4.50
2019-02-01T03:50:37.010Z,16.23
2019-02-01T03:53:07.290Z,6.17
2019-02-01T03:55:37.234Z,7.07
2019-02-01T03:58:07.314Z,7.77
2019-02-01T04:00:37.254Z,5.60
2019-02-01T04:03:07.236Z,6.60
2019-02-01T04:05:37.239Z,7.77
2019-02-01T04:08:07.344Z,5.87
2019-02-01T04:10:37.598Z,4.53
2019-02-01T04:13:07.730Z,3.70
2019-02-01T04:15:37.843Z,3.70
2019-02-01T04:18:07.884Z,5.77
2019-02-01T04:20:37.828Z,4.60
2019-02-01T04:23:07.871Z,6.20
2019-02-01T04:25:37.846Z,6.42
2019-02-01T04:28:07.815Z,8.13
2019-02-01T04:30:37.809Z,8.25
2019-02-01T04:33:08.081Z,4.80
2019-02-01T04:35:38.056Z,6.50
2019-02-01T04:38:08.001Z,4.92
2019-02-01T04:40:37.954Z,5.60
2019-02-01T04:43:08.023Z,6.30
2019-02-01T04:45:38.138Z,7.58
2019-02-01T04:48:08.082Z,6.20
2019-02-01T04:50:38.077Z,4.35
2019-02-01T04:53:08.057Z,4.97
2019-02-01T04:55:38.114Z,5.10
2019-02-01T04:58:08.201Z,4.60
2019-02-01T05:00:38.438Z,5.53
2019-02-01T05:03:08.523Z,5.47
2019-02-01T05:05:38.700Z,9.10
2019-02-01T05:08:08.756Z,5.95
2019-02-01T05:10:38.742Z,3.83
2019-02-01T05:13:08.736Z,9.40
2019-02-01T05:15:38.709Z,10.80
2019-02-01T05:18:08.644Z,15.20
2019-02-01T05:20:38.730Z,11.12
2019-02-01T05:23:08.789Z,9.60
2019-02-01T05:25:38.684Z,9.25
2019-02-01T05:28:08.793Z,7.58
2019-02-01T05:30:38.739Z,14.28
2019-02-01T05:33:08.749Z,5.90
2019-02-01T05:35:38.685Z,4.28
2019-02-01T05:38:08.729Z,9.73
2019-02-01T05:40:38.751Z,4.90
2019-02-01T05:43:08.941Z,7.03
2019-02-01T05:45:38.976Z,6.80
2019-02-01T05:48:08.932Z,5.13
2019-02-01T05:50:38.826Z,12.57
2019-02-01T05:53:08.820Z,5.92
2019-02-01T05:55:38.750Z,6.97
2019-02-01T05:58:08.665Z,4.17
2019-02-01T06:00:42.300Z,5.08
2019-02-01T06:03:12.381Z,5.07
2019-02-01T06:05:42.604Z,7.70
2019-02-01T06:08:12.578Z,5.27
2019-02-01T06:10:45.081Z,9.03
2019-02-01T06:13:15.160Z,5.37
2019-02-01T06:15:45.405Z,8.43
2019-02-01T06:18:15.436Z,5.00
2019-02-01T06:20:45.422Z,4.83
2019-02-01T06:23:15.322Z,7.25
2019-02-01T06:25:45.486Z,7.50
2019-02-01T06:28:15.586Z,5.37
2019-02-01T06:30:45.782Z,10.93
2019-02-01T06:33:15.927Z,7.83
2019-02-01T06:35:46.122Z,9.45
2019-02-01T06:38:16.054Z,4.67
2019-02-01T06:40:46.221Z,7.43
2019-02-01T06:43:16.155Z,14.57
2019-02-01T06:45:46.280Z,24.92
2019-02-01T06:48:16.485Z,8.90
2019-02-01T06:51:11.357Z,14.03
2019-02-01T06:53:41.241Z,7.17
2019-02-01T06:56:11.320Z,11.60
2019-02-01T06:58:41.280Z,18.93
2019-02-01T07:01:11.250Z,9.20
2019-02-01T07:03:55.891Z,10.47
2019-02-01T07:06:53.853Z,14.07
2019-02-01T07:09:57.670Z,6.25
2019-02-01T07:12:33.681Z,11.53
2019-02-01T07:15:41.188Z,8.10
2019-02-01T07:18:16.739Z,9.60
2019-02-01T07:21:09.593Z,17.73
2019-02-01T07:24:05.623Z,12.43
2019-02-01T07:26:54.087Z,97.62
2019-02-01T07:29:35.752Z,32.98
2019-02-01T07:32:24.937Z,21.43
2019-02-01T07:34:54.982Z,11.93
2019-02-01T07:37:24.882Z,13.73
2019-02-01T07:39:54.898Z,6.83
2019-02-01T07:42:25.070Z,18.83
2019-02-01T07:44:55.162Z,19.75
2019-02-01T07:47:25.276Z,11.22
2019-02-01T07:49:55.156Z,10.80
2019-02-01T07:52:25.285Z,28.90
2019-02-01T07:54:55.398Z,14.43
2019-02-01T07:57:25.539Z,9.00
2019-02-01T07:59:55.631Z,19.07
2019-02-01T08:02:25.723Z,9.13
2019-02-01T08:04:55.673Z,15.17
2019-02-01T08:07:25.916Z,16.00
2019-02-01T08:09:55.891Z,14.33
2019-02-01T08:12:26.029Z,7.03
2019-02-01T08:14:56.212Z,13.30
2019-02-01T08:17:26.280Z,14.53
2019-02-01T08:19:56.227Z,7.73
2019-02-01T08:22:26.336Z,10.27
2019-02-01T08:24:57.321Z,13.60
2019-02-01T08:27:27.524Z,12.20
2019-02-01T08:29:57.719Z,18.20
2019-02-01T08:32:27.737Z,26.35
2019-02-01T08:34:57.815Z,25.70
2019-02-01T08:37:27.717Z,25.10
2019-02-01T08:39:57.668Z,37.35
2019-02-01T08:42:27.579Z,29.10
2019-02-01T08:44:57.697Z,31.10
2019-02-01T08:47:27.672Z,35.73
2019-02-01T08:49:57.613Z,35.13
2019-02-01T08:52:27.529Z,55.80
2019-02-01T08:54:59.229Z,38.47
2019-02-01T08:57:29.214Z,33.50
2019-02-01T08:59:59.309Z,31.93
2019-02-01T09:02:29.496Z,31.82
2019-02-01T09:04:59.427Z,30.27
2019-02-01T09:07:29.563Z,36.90
2019-02-01T09:09:59.684Z,35.87
2019-02-01T09:12:29.746Z,36.57
2019-02-01T09:14:59.944Z,40.50
2019-02-01T09:17:30.109Z,35.07
2019-02-01T09:20:00.178Z,36.13
2019-02-01T09:22:30.527Z,39.00
2019-02-01T09:25:00.785Z,41.30
2019-02-01T09:27:30.846Z,31.90
2019-02-01T09:30:01.038Z,48.87
2019-02-01T09:32:31.243Z,43.67
2019-02-01T09:35:01.147Z,34.63
2019-02-01T09:37:31.456Z,47.17
2019-02-01T09:40:01.695Z,37.80
2019-02-01T09:42:31.665Z,37.30
2019-02-01T09:45:01.762Z,43.33
2019-02-01T09:47:32.017Z,43.40
2019-02-01T09:50:02.004Z,37.03
2019-02-01T09:52:32.140Z,46.73
2019-02-01T09:55:02.275Z,47.13
2019-02-01T09:57:32.240Z,40.53
2019-02-01T10:00:02.153Z,37.67
2019-02-01T10:02:32.516Z,40.25
2019-02-01T10:05:02.659Z,40.80
2019-02-01T10:07:33.821Z,33.27
2019-02-01T10:10:04.835Z,48.02
2019-02-01T10:12:34.875Z,35.52
2019-02-01T10:15:07.211Z,37.23
2019-02-01T10:17:37.254Z,48.17
2019-02-01T10:20:08.594Z,40.73
2019-02-01T10:22:38.808Z,46.40
2019-02-01T10:25:10.154Z,50.23
2019-02-01T10:27:40.272Z,36.25
2019-02-01T10:30:15.265Z,37.23
2019-02-01T10:32:45.276Z,42.77
2019-02-01T10:35:16.324Z,40.93
2019-02-01T10:37:46.890Z,36.20
2019-02-01T10:40:17.566Z,60.77
2019-02-01T10:42:47.725Z,38.73
2019-02-01T10:45:19.383Z,43.65
2019-02-01T10:47:53.522Z,39.33
2019-02-01T10:50:24.022Z,44.53
2019-02-01T10:52:54.378Z,46.33
2019-02-01T10:55:24.464Z,40.53
2019-02-01T10:57:54.695Z,42.53
2019-02-01T11:00:26.954Z,38.43
2019-02-01T11:02:57.130Z,39.53
2019-02-01T11:05:30.700Z,46.42
2019-02-01T11:08:00.735Z,49.23
2019-02-01T11:10:30.843Z,39.45
2019-02-01T11:13:00.945Z,40.53
2019-02-01T11:15:31.034Z,45.40
2019-02-01T11:18:01.257Z,32.27
2019-02-01T11:20:31.351Z,36.75
2019-02-01T11:23:01.428Z,33.63
2019-02-01T11:25:31.595Z,37.95
2019-02-01T11:28:01.690Z,40.80
2019-02-01T11:30:31.796Z,41.73
2019-02-01T11:33:01.832Z,35.57
2019-02-01T11:35:31.944Z,34.43
2019-02-01T11:38:02.018Z,39.70
2019-02-01T11:40:32.114Z,34.37
2019-02-01T11:43:02.055Z,39.78
2019-02-01T11:45:32.229Z,39.47
2019-02-01T11:48:02.346Z,40.57
2019-02-01T11:50:32.543Z,36.23
2019-02-01T11:53:02.581Z,41.03
2019-02-01T11:55:32.501Z,36.55
2019-02-01T11:58:02.596Z,39.47
2019-02-01T12:00:32.762Z,40.60
2019-02-01T12:03:02.935Z,38.47
2019-02-01T12:05:34.117Z,44.53
2019-02-01T12:08:05.683Z,30.20
2019-02-01T12:10:35.577Z,38.90
2019-02-01T12:13:05.778Z,35.30
2019-02-01T12:15:35.675Z,32.33
2019-02-01T12:18:05.846Z,35.63
2019-02-01T12:20:35.965Z,37.63
2019-02-01T12:23:06.125Z,31.90
2019-02-01T12:25:36.241Z,27.13
2019-02-01T12:28:06.418Z,42.30
2019-02-01T12:30:36.810Z,37.88
2019-02-01T12:33:07.004Z,37.50
2019-02-01T12:35:37.159Z,39.57
2019-02-01T12:38:07.208Z,42.43
2019-02-01T12:40:37.384Z,35.30
2019-02-01T12:43:07.449Z,41.30
2019-02-01T12:45:38.163Z,39.07
2019-02-01T12:48:08.643Z,38.27
2019-02-01T12:50:38.607Z,39.53
2019-02-01T12:53:11.611Z,33.30
2019-02-01T12:55:40.394Z,42.13
2019-02-01T12:58:10.474Z,32.17
2019-02-01T13:00:41.595Z,30.47
2019-02-01T13:03:13.618Z,33.23
2019-02-01T13:05:44.931Z,36.13
2019-02-01T13:08:15.001Z,33.20
2019-02-01T13:10:45.081Z,36.63
2019-02-01T13:13:15.238Z,34.00
2019-02-01T13:15:45.415Z,40.40
2019-02-01T13:18:15.505Z,36.60
2019-02-01T13:20:45.658Z,31.52
2019-02-01T13:23:22.861Z,30.68
2019-02-01T13:25:47.484Z,40.73
2019-02-01T13:28:18.610Z,29.30
2019-02-01T13:30:48.904Z,32.95
2019-02-01T13:33:18.989Z,33.73
2019-02-01T13:35:49.000Z,32.20
2019-02-01T13:38:19.164Z,35.63
2019-02-01T13:40:49.242Z,29.97
2019-02-01T13:43:19.190Z,34.70
2019-02-01T13:46:00.484Z,29.87
2019-02-01T13:48:21.203Z,33.17
2019-02-01T13:50:51.184Z,28.53
2019-02-01T13:53:21.196Z,27.30
2019-02-01T13:55:51.043Z,33.88
2019-02-01T13:58:21.033Z,29.47
2019-02-01T14:00:51.181Z,38.33
2019-02-01T14:03:21.180Z,28.03
2019-02-01T14:05:51.284Z,35.47
2019-02-01T14:08:21.406Z,32.30
2019-02-01T14:10:51.452Z,31.67
2019-02-01T14:13:21.561Z,27.33
2019-02-01T14:15:51.630Z,30.53
2019-02-01T14:18:21.752Z,35.40
2019-02-01T14:20:51.840Z,29.30
2019-02-01T14:23:47.090Z,27.23
2019-02-01T14:26:16.622Z,35.60
2019-02-01T14:28:46.761Z,32.17
2019-02-01T14:31:16.945Z,29.50
2019-02-01T14:33:47.053Z,27.50
2019-02-01T14:36:17.028Z,37.23
2019-02-01T14:38:47.061Z,37.40
2019-02-01T14:41:17.112Z,33.43
2019-02-01T14:43:47.134Z,25.85
2019-02-01T14:46:17.106Z,30.30
2019-02-01T14:48:47.266Z,25.32
2019-02-01T14:51:17.509Z,34.43
2019-02-01T14:53:57.989Z,34.10
2019-02-01T14:56:19.317Z,29.23
2019-02-01T14:58:49.355Z,30.08
2019-02-01T15:01:19.407Z,32.53
2019-02-01T15:03:49.341Z,36.45
2019-02-01T15:06:19.394Z,26.83
2019-02-01T15:08:49.375Z,31.80
2019-02-01T15:11:19.613Z,35.37
2019-02-01T15:13:49.808Z,28.90
2019-02-01T15:16:37.324Z,38.80
2019-02-01T15:18:51.475Z,44.43
2019-02-01T15:21:21.440Z,38.40
2019-02-01T15:23:51.419Z,41.10
2019-02-01T15:26:21.947Z,23.73
2019-02-01T15:28:52.020Z,39.00
2019-02-01T15:31:23.175Z,29.60
2019-02-01T15:33:53.897Z,36.30
2019-02-01T15:36:24.088Z,37.43
2019-02-01T15:38:54.732Z,33.20
2019-02-01T15:41:24.779Z,39.00
2019-02-01T15:43:54.932Z,37.33
2019-02-01T15:46:24.956Z,31.53
2019-02-01T15:48:54.862Z,27.67
2019-02-01T15:51:25.265Z,32.57
2019-02-01T15:53:55.461Z,36.03
2019-02-01T15:56:25.492Z,34.57
2019-02-01T15:58:55.438Z,33.88
2019-02-01T16:01:25.990Z,34.63
2019-02-01T16:03:56.116Z,33.75
2019-02-01T16:06:26.254Z,34.73
2019-02-01T16:08:56.209Z,34.92
2019-02-01T16:11:28.618Z,34.60
2019-02-01T16:13:58.122Z,31.73
2019-02-01T16:16:28.088Z,33.60
2019-02-01T16:18:58.003Z,32.73
2019-02-01T16:21:27.969Z,42.03
2019-02-01T16:24:06.219Z,46.47
2019-02-01T16:26:29.708Z,28.45
2019-02-01T16:28:59.753Z,35.68
2019-02-01T16:31:29.812Z,40.17
2019-02-01T16:33:59.847Z,39.83
2019-02-01T16:36:29.829Z,30.82
2019-02-01T16:39:05.676Z,33.78
2019-02-01T16:41:31.484Z,39.53
2019-02-01T16:44:01.554Z,45.20
2019-02-01T16:46:31.660Z,28.50
2019-02-01T16:49:01.706Z,31.93
2019-02-01T16:51:31.659Z,31.90
2019-02-01T16:54:01.712Z,31.30
2019-02-01T16:56:31.829Z,31.87
2019-02-01T16:59:07.495Z,33.77
2019-02-01T17:01:33.416Z,45.17
2019-02-01T17:04:03.444Z,39.70
2019-02-01T17:06:33.398Z,32.53
2019-02-01T17:09:04.077Z,37.17
2019-02-01T17:11:34.091Z,36.47
2019-02-01T17:14:04.752Z,39.00
2019-02-01T17:16:34.641Z,35.08
2019-02-01T17:19:04.626Z,33.60
2019-02-01T17:21:34.771Z,39.33
2019-02-01T17:24:04.781Z,36.27
2019-02-01T17:26:36.035Z,39.10
2019-02-01T17:29:06.275Z,51.57
2019-02-01T17:31:36.474Z,40.70
2019-02-01T17:34:06.671Z,37.87
2019-02-01T17:36:36.621Z,32.17
2019-02-01T17:39:09.694Z,38.77
2019-02-01T17:41:40.578Z,41.66
2019-02-01T17:44:10.577Z,33.83
2019-02-01T17:46:40.568Z,41.65
2019-02-01T17:49:10.688Z,33.63
2019-02-01T17:51:50.529Z,45.00
2019-02-01T17:54:12.333Z,34.83
2019-02-01T17:56:42.437Z,31.60
2019-02-01T17:59:12.506Z,31.90
2019-02-01T18:01:42.672Z,44.10
2019-02-01T18:04:12.758Z,38.57
2019-02-01T18:06:42.703Z,38.70
2019-02-01T18:09:12.795Z,47.60
2019-02-01T18:11:42.792Z,55.03
2019-02-01T18:14:12.795Z,41.57
2019-02-01T18:16:42.859Z,35.73
2019-02-01T18:19:12.823Z,38.27
2019-02-01T18:21:42.824Z,35.78
2019-02-01T18:24:12.742Z,40.53
2019-02-01T18:26:42.896Z,38.73
2019-02-01T18:29:12.779Z,39.48
2019-02-01T18:31:42.725Z,37.40
2019-02-01T18:34:12.718Z,35.93
2019-02-01T18:36:42.810Z,39.73
2019-02-01T18:39:12.796Z,38.80
2019-02-01T18:41:42.685Z,34.77
2019-02-01T18:44:12.580Z,34.37
2019-02-01T18:46:42.521Z,42.50
2019-02-01T18:49:12.509Z,33.70
2019-02-01T18:51:42.444Z,39.37
2019-02-01T18:54:12.465Z,41.50
2019-02-01T18:56:42.447Z,33.53
2019-02-01T18:59:12.451Z,119.00
2019-02-01T19:01:42.539Z,48.60
2019-02-01T19:04:12.445Z,38.03
2019-02-01T19:06:42.442Z,37.53
2019-02-01T19:09:12.498Z,36.00
2019-02-01T19:11:43.164Z,37.27
2019-02-01T19:14:13.363Z,39.00
2019-02-01T19:16:43.327Z,51.60
2019-02-01T19:19:13.270Z,38.43
2019-02-01T19:21:43.207Z,38.50
2019-02-01T19:24:13.391Z,38.73
2019-02-01T19:26:43.306Z,43.20
2019-02-01T19:29:13.390Z,40.50
2019-02-01T19:31:43.614Z,41.93
2019-02-01T19:34:13.682Z,38.30
2019-02-01T19:36:43.836Z,28.60
2019-02-01T19:39:14.005Z,45.67
2019-02-01T19:41:44.094Z,37.60
2019-02-01T19:44:14.133Z,39.03
2019-02-01T19:46:46.081Z,39.17
2019-02-01T19:49:15.749Z,48.77
2019-02-01T19:51:45.803Z,54.80
2019-02-01T19:54:15.779Z,38.40
2019-02-01T19:56:45.655Z,36.37
2019-02-01T19:59:15.684Z,40.10
2019-02-01T20:01:45.663Z,45.27
2019-02-01T20:04:15.905Z,45.13
2019-02-01T20:06:45.857Z,47.80
2019-02-01T20:09:15.915Z,44.23
2019-02-01T20:11:45.889Z,45.33
2019-02-01T20:14:15.837Z,36.77
2019-02-01T20:16:45.741Z,50.20
2019-02-01T20:19:15.754Z,39.33
2019-02-01T20:21:45.643Z,50.20
2019-02-01T20:24:15.634Z,38.93
2019-02-01T20:26:45.529Z,38.27
2019-02-01T20:29:15.479Z,40.40
2019-02-01T20:31:45.490Z,39.03
2019-02-01T20:34:15.412Z,32.38
2019-02-01T20:36:45.371Z,57.03
2019-02-01T20:39:15.403Z,34.33
2019-02-01T20:41:46.097Z,39.53
2019-02-01T20:44:16.013Z,38.77
2019-02-01T20:46:45.971Z,29.73
2019-02-01T20:49:16.051Z,32.10
2019-02-01T20:51:46.108Z,38.60
2019-02-01T20:54:16.488Z,35.53
2019-02-01T20:56:46.653Z,35.80
2019-02-01T20:59:16.563Z,31.27
2019-02-01T21:01:46.432Z,41.53
2019-02-01T21:04:16.436Z,50.03
2019-02-01T21:06:46.327Z,34.23
2019-02-01T21:09:16.315Z,35.80
2019-02-01T21:11:46.217Z,34.40
2019-02-01T21:14:16.138Z,35.58
2019-02-01T21:16:46.034Z,48.02
2019-02-01T21:19:16.003Z,40.10
2019-02-01T21:21:45.985Z,41.18
2019-02-01T21:24:16.078Z,40.43
2019-02-01T21:26:46.278Z,46.00
2019-02-01T21:29:16.267Z,53.78
2019-02-01T21:31:46.353Z,37.43
2019-02-01T21:34:16.581Z,33.20
2019-02-01T21:36:46.528Z,45.33
2019-02-01T21:39:16.510Z,38.23
2019-02-01T21:41:46.419Z,49.33
2019-02-01T21:44:16.700Z,51.77
2019-02-01T21:46:46.643Z,45.17
2019-02-01T21:49:16.563Z,38.37
2019-02-01T21:51:46.457Z,44.70
2019-02-01T21:54:16.472Z,44.30
2019-02-01T21:56:48.282Z,40.50
2019-02-01T21:59:18.287Z,47.67
2019-02-01T22:01:48.340Z,39.42
2019-02-01T22:04:18.250Z,40.58
2019-02-01T22:06:48.445Z,36.17
2019-02-01T22:09:18.888Z,42.83
2019-02-01T22:11:48.797Z,53.07
2019-02-01T22:14:18.797Z,43.93
2019-02-01T22:16:48.725Z,40.20
2019-02-01T22:19:18.618Z,44.60
2019-02-01T22:21:48.505Z,47.62
2019-02-01T22:24:18.417Z,39.90
2019-02-01T22:26:55.023Z,40.63
2019-02-01T22:29:20.120Z,45.55
2019-02-01T22:31:50.185Z,35.78
2019-02-01T22:34:20.217Z,45.80
2019-02-01T22:36:50.147Z,47.30
2019-02-01T22:39:20.089Z,42.67
2019-02-01T22:41:50.001Z,41.40
2019-02-01T22:44:20.019Z,36.13
2019-02-01T22:46:49.969Z,43.27
2019-02-01T22:49:19.900Z,43.43
2019-02-01T22:51:49.879Z,40.05
2019-02-01T22:54:19.791Z,44.93
2019-02-01T22:56:49.689Z,36.37
2019-02-01T22:59:19.604Z,36.50
2019-02-01T23:01:54.193Z,40.67
2019-02-01T23:04:49.835Z,46.23
2019-02-01T23:07:20.205Z,33.00
2019-02-01T23:09:50.284Z,34.48
2019-02-01T23:12:20.638Z,37.77
2019-02-01T23:14:50.739Z,39.83
2019-02-01T23:17:20.827Z,38.63
2019-02-01T23:19:52.822Z,42.30
2019-02-01T23:22:22.852Z,51.28
2019-02-01T23:24:52.808Z,45.17
2019-02-01T23:27:23.188Z,39.23
2019-02-01T23:29:53.222Z,41.23
2019-02-01T23:32:23.380Z,44.20
2019-02-01T23:34:53.275Z,45.52
2019-02-01T23:37:23.399Z,42.13
2019-02-01T23:39:53.557Z,40.57
2019-02-01T23:42:23.658Z,40.37
2019-02-01T23:44:53.745Z,42.40
2019-02-01T23:47:23.790Z,39.30
2019-02-01T23:49:53.691Z,39.23
2019-02-01T23:52:23.720Z,46.27
2019-02-01T23:54:53.745Z,40.10
2019-02-01T23:57:29.802Z,39.23
2019-02-01T23:59:55.901Z,40.73
